Observation data for Floydada on 02/24/2021      Previous  Date  Next       Current Mesonet Observations  Soil Data  Daily Summary Page  Observations in Plain Language
KFLS 240600Z 25012KT 10/M11 A2982 RMK A01 T00981114  RH  022%=      5-min Rain = 0
KFLS 240605Z 25012KT 09/M11 A2982 RMK A01 T00941112  RH  022%=      5-min Rain = 0
KFLS 240610Z 25012KT 09/M11 A2982 RMK A01 T00931112  RH  023%=      5-min Rain = 0
KFLS 240615Z 24013KT 09/M11 A2982 RMK A01 T00941112  RH  022%=      5-min Rain = 0
KFLS 240620Z 25013KT 09/M11 A2983 RMK A01 T00901111  RH  023%=      5-min Rain = 0
KFLS 240625Z 24015KT 09/M11 A2982 RMK A01 T00901112  RH  023%=      5-min Rain = 0
KFLS 240630Z 24014KT 09/M11 A2982 RMK A01 T00921112  RH  023%=      5-min Rain = 0
KFLS 240635Z 26014KT 09/M11 A2982 RMK A01 T00901110  RH  023%=      5-min Rain = 0
KFLS 240640Z 26013KT 09/M11 A2983 RMK A01 T00881107  RH  024%=      5-min Rain = 0
KFLS 240645Z 25015KT 09/M11 A2983 RMK A01 T00871107  RH  024%=      5-min Rain = 0
KFLS 240650Z 25014KT 09/M11 A2983 RMK A01 T00851106  RH  025%=      5-min Rain = 0
KFLS 240655Z 26013KT 08/M10 A2984 RMK A01 T00811104  RH  026%=      5-min Rain = 0
KFLS 240700Z 26014KT 08/M10 A2984 RMK A01 T00821103  RH  026%=      5-min Rain = 0
KFLS 240705Z 26015KT 09/M10 A2984 RMK A01 T00851102  RH  026%=      5-min Rain = 0
KFLS 240710Z 26016KT 09/M10 A2984 RMK A01 T00911102  RH  025%=      5-min Rain = 0
KFLS 240715Z 26015KT 09/M10 A2985 RMK A01 T00921102  RH  025%=      5-min Rain = 0
KFLS 240720Z 26015KT 09/M10 A2985 RMK A01 T00911101  RH  025%=      5-min Rain = 0
KFLS 240725Z 26015KT 09/M10 A2984 RMK A01 T00931100  RH  025%=      5-min Rain = 0
KFLS 240730Z 27015KT 09/M10 A2984 RMK A01 T00941099  RH  025%=      5-min Rain = 0
KFLS 240735Z 26015KT 09/M10 A2985 RMK A01 T00941098  RH  025%=      5-min Rain = 0
KFLS 240740Z 27015KT 09/M10 A2985 RMK A01 T00941097  RH  025%=      5-min Rain = 0
KFLS 240745Z 27014KT 10/M10 A2985 RMK A01 T00951096  RH  025%=      5-min Rain = 0
KFLS 240750Z 29014KT 09/M10 A2987 RMK A01 T00931096  RH  026%=      5-min Rain = 0
KFLS 240755Z 30016G22KT 09/M10 A2989 RMK A01 T00931096  RH  026%=      5-min Rain = 0
KFLS 240800Z 30018G26KT 10/M09 A299 RMK A01 T01021093  RH  025%=      5-min Rain = 0
KFLS 240805Z 31019G26KT 11/M09 A299 RMK A01 T01121087  RH  024%=      5-min Rain = 0
KFLS 240810Z 31019G26KT 11/M08 A2991 RMK A01 T01091081  RH  026%=      5-min Rain = 0
KFLS 240815Z 31018G24KT 11/M08 A2991 RMK A01 T01051077  RH  027%=      5-min Rain = 0
KFLS 240820Z 31017G24KT 10/M07 A2992 RMK A01 T01001069  RH  030%=      5-min Rain = 0
KFLS 240825Z 32017G26KT 10/M06 A2992 RMK A01 T00971062  RH  032%=      5-min Rain = 0
KFLS 240830Z 33018G25KT 10/M06 A2992 RMK A01 T00951058  RH  034%=      5-min Rain = 0
KFLS 240835Z 33018KT 09/M06 A2993 RMK A01 T00911056  RH  035%=      5-min Rain = 0
KFLS 240840Z 33016G22KT 09/M05 A2993 RMK A01 T00881054  RH  037%=      5-min Rain = 0
KFLS 240845Z 34015G20KT 09/M05 A2993 RMK A01 T00861052  RH  038%=      5-min Rain = 0
KFLS 240850Z 34014KT 08/M05 A2994 RMK A01 T00841052  RH  038%=      5-min Rain = 0
KFLS 240855Z 34013G18KT 08/M05 A2995 RMK A01 T00811052  RH  039%=      5-min Rain = 0
KFLS 240900Z 34012KT 08/M05 A2995 RMK A01 T00791052  RH  040%=      5-min Rain = 0
KFLS 240905Z 34014G19KT 08/M05 A2996 RMK A01 T00781051  RH  040%=      5-min Rain = 0
KFLS 240910Z 35014G20KT 08/M05 A2996 RMK A01 T00801051  RH  040%=      5-min Rain = 0
KFLS 240915Z 35015G20KT 08/M05 A2996 RMK A01 T00791050  RH  040%=      5-min Rain = 0
KFLS 240920Z 34013G18KT 08/M05 A2996 RMK A01 T00771050  RH  041%=      5-min Rain = 0
KFLS 240925Z 35014G19KT 08/M05 A2996 RMK A01 T00751051  RH  041%=      5-min Rain = 0
KFLS 240930Z 35012G17KT 07/M05 A2997 RMK A01 T00741051  RH  041%=      5-min Rain = 0
KFLS 240935Z 35012KT 07/M05 A2997 RMK A01 T00721051  RH  042%=      5-min Rain = 0
KFLS 240940Z 00013KT 07/M05 A2997 RMK A01 T00691051  RH  043%=      5-min Rain = 0
KFLS 240945Z 36011KT 07/M05 A2997 RMK A01 T00681051  RH  043%=      5-min Rain = 0
KFLS 240950Z 36011KT 07/M05 A2998 RMK A01 T00661051  RH  043%=      5-min Rain = 0
KFLS 240955Z 36012G17KT 07/M05 A2998 RMK A01 T00651051  RH  044%=      5-min Rain = 0
KFLS 241000Z 36012G17KT 07/M05 A2998 RMK A01 T00651052  RH  044%=      5-min Rain = 0
KFLS 241005Z 36011KT 06/M05 A2998 RMK A01 T00641052  RH  044%=      5-min Rain = 0
KFLS 241010Z 36012KT 06/M05 A2998 RMK A01 T00641053  RH  043%=      5-min Rain = 0
KFLS 241015Z 35011G16KT 06/M05 A2998 RMK A01 T00621054  RH  044%=      5-min Rain = 0
KFLS 241020Z 35013KT 06/M06 A2998 RMK A01 T00611055  RH  044%=      5-min Rain = 0
KFLS 241025Z 35012G17KT 06/M06 A2999 RMK A01 T00601056  RH  044%=      5-min Rain = 0
KFLS 241030Z 36011KT 06/M06 A2999 RMK A01 T00571056  RH  044%=      5-min Rain = 0
KFLS 241035Z 35012KT 06/M06 A2999 RMK A01 T00571056  RH  044%=      5-min Rain = 0
KFLS 241040Z 34012KT 05/M06 A2999 RMK A01 T00541057  RH  045%=      5-min Rain = 0
KFLS 241045Z 35014G20KT 05/M06 A2999 RMK A01 T00531057  RH  045%=      5-min Rain = 0
KFLS 241050Z 35015G20KT 06/M06 A2999 RMK A01 T00551058  RH  045%=      5-min Rain = 0
KFLS 241055Z 35012G19KT 06/M06 A30 RMK A01 T00551058  RH  045%=      5-min Rain = 0
KFLS 241100Z 34012G18KT 05/M06 A30 RMK A01 T00541057  RH  045%=      5-min Rain = 0
KFLS 241105Z 33011G16KT 05/M06 A3001 RMK A01 T00491058  RH  046%=      5-min Rain = 0
KFLS 241110Z 33011KT 05/M06 A3001 RMK A01 T00461056  RH  048%=      5-min Rain = 0
KFLS 241115Z 35013G18KT 05/M06 A3001 RMK A01 T00511056  RH  046%=      5-min Rain = 0
KFLS 241120Z 00016G23KT 06/M06 A30 RMK A01 T00551055  RH  046%=      5-min Rain = 0
KFLS 241125Z 36016G22KT 05/M05 A3001 RMK A01 T00541054  RH  046%=      5-min Rain = 0
KFLS 241130Z 35014G21KT 05/M05 A3001 RMK A01 T00521054  RH  047%=      5-min Rain = 0
KFLS 241135Z 35015G20KT 05/M05 A3001 RMK A01 T00531053  RH  047%=      5-min Rain = 0
KFLS 241140Z 35015G20KT 05/M05 A3002 RMK A01 T00511053  RH  047%=      5-min Rain = 0
KFLS 241145Z 35016G21KT 05/M05 A3002 RMK A01 T00511053  RH  048%=      5-min Rain = 0
KFLS 241150Z 35016G21KT 05/M05 A3003 RMK A01 T00511052  RH  048%=      5-min Rain = 0
KFLS 241155Z 36015G20KT 05/M05 A3003 RMK A01 T00511052  RH  048%=      5-min Rain = 0
KFLS 241200Z 35015G22KT 05/M05 A3003 RMK A01 T00501052  RH  048%=      5-min Rain = 0
KFLS 241205Z 33013KT 05/M05 A3004 RMK A01 T00471054  RH  049%=      5-min Rain = 0
KFLS 241210Z 35014G19KT 05/M05 A3004 RMK A01 T00501053  RH  048%=      5-min Rain = 0
KFLS 241215Z 36015G23KT 05/M05 A3004 RMK A01 T00511053  RH  047%=      5-min Rain = 0
KFLS 241220Z 35013G18KT 05/M05 A3004 RMK A01 T00481054  RH  048%=      5-min Rain = 0
KFLS 241225Z 35012KT 05/M05 A3005 RMK A01 T00451054  RH  049%=      5-min Rain = 0
KFLS 241230Z 35012KT 04/M05 A3005 RMK A01 T00421054  RH  050%=      5-min Rain = 0
KFLS 241235Z 00014G19KT 04/M05 A3005 RMK A01 T00401054  RH  051%=      5-min Rain = 0
KFLS 241240Z 36014G19KT 04/M05 A3005 RMK A01 T00391054  RH  051%=      5-min Rain = 0
KFLS 241245Z 34013G19KT 04/M05 A3005 RMK A01 T00421054  RH  050%=      5-min Rain = 0
KFLS 241250Z 35012G17KT 04/M06 A3006 RMK A01 T00421055  RH  050%=      5-min Rain = 0
KFLS 241255Z 35012KT 04/M06 A3006 RMK A01 T00391055  RH  051%=      5-min Rain = 0
KFLS 241300Z 35012KT 04/M06 A3007 RMK A01 T00361056  RH  052%=      5-min Rain = 0
KFLS 241305Z 34013KT 03/M06 A3007 RMK A01 T00341055  RH  052%=      5-min Rain = 0
KFLS 241310Z 35013KT 03/M06 A3007 RMK A01 T00341056  RH  053%=      5-min Rain = 0
KFLS 241315Z 35012KT 03/M06 A3008 RMK A01 T00321056  RH  053%=      5-min Rain = 0
KFLS 241320Z 36012KT 03/M06 A3008 RMK A01 T00321055  RH  053%=      5-min Rain = 0
KFLS 241325Z 35011G17KT 03/M05 A3008 RMK A01 T00341054  RH  053%=      5-min Rain = 0
KFLS 241330Z 36012G18KT 04/M05 A3008 RMK A01 T00351054  RH  053%=      5-min Rain = 0
KFLS 241335Z 36013G18KT 04/M05 A3008 RMK A01 T00361053  RH  053%=      5-min Rain = 0
KFLS 241340Z 36011KT 04/M05 A3009 RMK A01 T00361053  RH  053%=      5-min Rain = 0
KFLS 241345Z 36013G18KT 04/M05 A3009 RMK A01 T00371051  RH  053%=      5-min Rain = 0
KFLS 241350Z 35012KT 04/M05 A301 RMK A01 T00391049  RH  053%=      5-min Rain = 0
KFLS 241355Z 35012G17KT 04/M05 A301 RMK A01 T00391048  RH  053%=      5-min Rain = 0
KFLS 241400Z 35012G17KT 04/M05 A3011 RMK A01 T00401048  RH  053%=      5-min Rain = 0
KFLS 241405Z 35012G17KT 04/M05 A3012 RMK A01 T00421048  RH  053%=      5-min Rain = 0
KFLS 241410Z 35011G16KT 04/M05 A3012 RMK A01 T00411047  RH  053%=      5-min Rain = 0
KFLS 241415Z 35012KT 04/M05 A3012 RMK A01 T00431045  RH  054%=      5-min Rain = 0
KFLS 241420Z 35014KT 05/M04 A3012 RMK A01 T00461041  RH  054%=      5-min Rain = 0
KFLS 241425Z 36014G19KT 05/M04 A3013 RMK A01 T00481039  RH  054%=      5-min Rain = 0
KFLS 241430Z 36015G21KT 05/M04 A3013 RMK A01 T00501038  RH  054%=      5-min Rain = 0
KFLS 241435Z 36015KT 05/M04 A3014 RMK A01 T00511037  RH  053%=      5-min Rain = 0
KFLS 241440Z 00016G22KT 05/M04 A3014 RMK A01 T00531037  RH  053%=      5-min Rain = 0
KFLS 241445Z 00018G23KT 06/M04 A3015 RMK A01 T00551037  RH  052%=      5-min Rain = 0
KFLS 241450Z 00018G23KT 06/M04 A3015 RMK A01 T00551037  RH  052%=      5-min Rain = 0
KFLS 241455Z 00018G23KT 06/M04 A3015 RMK A01 T00571037  RH  051%=      5-min Rain = 0
KFLS 241500Z 01019G24KT 06/M04 A3015 RMK A01 T00591037  RH  050%=      5-min Rain = 0
KFLS 241505Z 01020G25KT 06/M04 A3015 RMK A01 T00591039  RH  050%=      5-min Rain = 0
KFLS 241510Z 01019G27KT 06/M04 A3016 RMK A01 T00621040  RH  049%=      5-min Rain = 0
KFLS 241515Z 01019G25KT 06/M04 A3016 RMK A01 T00641040  RH  048%=      5-min Rain = 0
KFLS 241520Z 01019G26KT 06/M04 A3016 RMK A01 T00641041  RH  048%=      5-min Rain = 0
KFLS 241525Z 01021G27KT 06/M04 A3016 RMK A01 T00641043  RH  047%=      5-min Rain = 0
KFLS 241530Z 01019KT 07/M04 A3017 RMK A01 T00661043  RH  046%=      5-min Rain = 0
KFLS 241535Z 00020G25KT 07/M05 A3017 RMK A01 T00661045  RH  045%=      5-min Rain = 0
KFLS 241540Z 01018G23KT 07/M04 A3017 RMK A01 T00691044  RH  045%=      5-min Rain = 0
KFLS 241545Z 01019G24KT 07/M05 A3017 RMK A01 T00691046  RH  044%=      5-min Rain = 0
KFLS 241550Z 01016G21KT 07/M05 A3017 RMK A01 T00741045  RH  043%=      5-min Rain = 0
KFLS 241555Z 01017G22KT 08/M05 A3017 RMK A01 T00751047  RH  042%=      5-min Rain = 0
KFLS 241600Z 01018KT 07/M05 A3017 RMK A01 T00741047  RH  042%=      5-min Rain = 0
KFLS 241605Z 01016G21KT 08/M05 A3017 RMK A01 T00771047  RH  042%=      5-min Rain = 0
KFLS 241610Z 01018G23KT 08/M05 A3018 RMK A01 T00801048  RH  040%=      5-min Rain = 0
KFLS 241615Z 01017G22KT 08/M05 A3018 RMK A01 T00801048  RH  040%=      5-min Rain = 0
KFLS 241620Z 01016KT 08/M05 A3018 RMK A01 T00821048  RH  040%=      5-min Rain = 0
KFLS 241625Z 01014G21KT 09/M05 A3018 RMK A01 T00851048  RH  039%=      5-min Rain = 0
KFLS 241630Z 01015G21KT 09/M05 A3018 RMK A01 T00851048  RH  039%=      5-min Rain = 0
KFLS 241635Z 01015G21KT 09/M05 A3018 RMK A01 T00861049  RH  039%=      5-min Rain = 0
KFLS 241640Z 01015G20KT 09/M05 A3018 RMK A01 T00881049  RH  038%=      5-min Rain = 0
KFLS 241645Z 03016KT 09/M05 A3018 RMK A01 T00931048  RH  037%=      5-min Rain = 0
KFLS 241650Z 03015G20KT 09/M05 A3018 RMK A01 T00911050  RH  037%=      5-min Rain = 0
KFLS 241655Z 02014KT 10/M05 A3018 RMK A01 T00951048  RH  036%=      5-min Rain = 0
KFLS 241700Z 02015KT 10/M05 A3018 RMK A01 T00961050  RH  036%=      5-min Rain = 0
KFLS 241705Z 03013G18KT 10/M05 A3018 RMK A01 T00971050  RH  035%=      5-min Rain = 0
KFLS 241710Z 03011G18KT 10/M05 A3018 RMK A01 T01031049  RH  034%=      5-min Rain = 0
KFLS 241715Z 03013KT 10/M05 A3018 RMK A01 T01021050  RH  034%=      5-min Rain = 0
KFLS 241720Z 04013KT 11/M05 A3018 RMK A01 T01051051  RH  033%=      5-min Rain = 0
KFLS 241725Z 04014G19KT 11/M05 A3018 RMK A01 T01071052  RH  033%=      5-min Rain = 0
KFLS 241730Z 04014G19KT 11/M05 A3018 RMK A01 T01051053  RH  033%=      5-min Rain = 0
KFLS 241735Z 03013G21KT 11/M05 A3018 RMK A01 T01091052  RH  032%=      5-min Rain = 0
KFLS 241740Z 04015KT 11/M05 A3018 RMK A01 T01091052  RH  032%=      5-min Rain = 0
KFLS 241745Z 04014KT 10/M05 A3018 RMK A01 T01041054  RH  033%=      5-min Rain = 0
KFLS 241750Z 04015G20KT 11/M05 A3018 RMK A01 T01101054  RH  032%=      5-min Rain = 0
KFLS 241755Z 04014G19KT 11/M06 A3018 RMK A01 T01071055  RH  032%=      5-min Rain = 0
KFLS 241800Z 04014G20KT 11/M06 A3018 RMK A01 T01081055  RH  032%=      5-min Rain = 0
KFLS 241805Z 04016KT 11/M06 A3017 RMK A01 T01131056  RH  031%=      5-min Rain = 0
KFLS 241810Z 04015G20KT 12/M06 A3017 RMK A01 T01161058  RH  029%=      5-min Rain = 0
KFLS 241815Z 04013G18KT 11/M06 A3017 RMK A01 T01131058  RH  030%=      5-min Rain = 0
KFLS 241820Z 04014G21KT 12/M06 A3016 RMK A01 T01171059  RH  029%=      5-min Rain = 0
KFLS 241825Z 03013G18KT 12/M06 A3016 RMK A01 T01181057  RH  029%=      5-min Rain = 0
KFLS 241830Z 03014KT 12/M06 A3016 RMK A01 T01171059  RH  029%=      5-min Rain = 0
KFLS 241835Z 03015G20KT 12/M06 A3016 RMK A01 T01201056  RH  029%=      5-min Rain = 0
KFLS 241840Z 03016G21KT 12/M06 A3016 RMK A01 T01201059  RH  028%=      5-min Rain = 0
KFLS 241845Z 04014G21KT 12/M06 A3015 RMK A01 T01201058  RH  029%=      5-min Rain = 0
KFLS 241850Z 04015G21KT 12/M06 A3015 RMK A01 T01221062  RH  028%=      5-min Rain = 0
KFLS 241855Z 04016KT 12/M06 A3015 RMK A01 T01231061  RH  027%=      5-min Rain = 0
KFLS 241900Z 05015KT 12/M06 A3015 RMK A01 T01231062  RH  027%=      5-min Rain = 0
KFLS 241905Z 04014G19KT 13/M06 A3015 RMK A01 T01301062  RH  026%=      5-min Rain = 0
KFLS 241910Z 04013G20KT 13/M06 A3015 RMK A01 T01251063  RH  027%=      5-min Rain = 0
KFLS 241915Z 05014KT 13/M07 A3015 RMK A01 T01301069  RH  025%=      5-min Rain = 0
KFLS 241920Z 04014KT 13/M07 A3015 RMK A01 T01271067  RH  026%=      5-min Rain = 0
KFLS 241925Z 05013G19KT 13/M07 A3015 RMK A01 T01301066  RH  025%=      5-min Rain = 0
KFLS 241930Z 05013G18KT 13/M07 A3014 RMK A01 T01271068  RH  025%=      5-min Rain = 0
KFLS 241935Z 07012G18KT 13/M07 A3014 RMK A01 T01311070  RH  024%=      5-min Rain = 0
KFLS 241940Z 05013G18KT 13/M07 A3014 RMK A01 T01331069  RH  024%=      5-min Rain = 0
KFLS 241945Z 05011KT 13/M07 A3014 RMK A01 T01301071  RH  024%=      5-min Rain = 0
KFLS 241950Z 02010G15KT 13/M07 A3014 RMK A01 T01321069  RH  024%=      5-min Rain = 0
KFLS 241955Z 05012G18KT 13/M08 A3013 RMK A01 T01341078  RH  022%=      5-min Rain = 0
KFLS 242000Z 06012KT 14/M07 A3014 RMK A01 T01351074  RH  023%=      5-min Rain = 0
KFLS 242005Z 05012G19KT 14/M08 A3013 RMK A01 T01361083  RH  021%=      5-min Rain = 0
KFLS 242010Z 05012KT 14/M08 A3013 RMK A01 T01391084  RH  021%=      5-min Rain = 0
KFLS 242015Z 06010G15KT 14/M08 A3013 RMK A01 T01351081  RH  022%=      5-min Rain = 0
KFLS 242020Z 05010KT 14/M08 A3012 RMK A01 T01401079  RH  021%=      5-min Rain = 0
KFLS 242025Z 07013G18KT 14/M09 A3012 RMK A01 T01431086  RH  020%=      5-min Rain = 0
KFLS 242030Z 07011G16KT 14/M09 A3012 RMK A01 T01371089  RH  020%=      5-min Rain = 0
KFLS 242035Z 06010G17KT 14/M09 A3012 RMK A01 T01361088  RH  020%=      5-min Rain = 0
KFLS 242040Z 06013G18KT 14/M09 A3012 RMK A01 T01371085  RH  021%=      5-min Rain = 0
KFLS 242045Z 06009G14KT 14/M09 A3012 RMK A01 T01351085  RH  021%=      5-min Rain = 0
KFLS 242050Z 05012G18KT 14/M09 A3012 RMK A01 T01381085  RH  021%=      5-min Rain = 0
KFLS 242055Z 07012G17KT 14/M09 A3012 RMK A01 T01381091  RH  020%=      5-min Rain = 0
KFLS 242100Z 06010G16KT 14/M09 A3012 RMK A01 T01361086  RH  021%=      5-min Rain = 0
KFLS 242105Z 05011G18KT 14/M09 A3011 RMK A01 T01381088  RH  020%=      5-min Rain = 0
KFLS 242110Z 07012KT 14/M10 A3011 RMK A01 T01431095  RH  019%=      5-min Rain = 0
KFLS 242115Z 06011G17KT 14/M09 A3011 RMK A01 T01421091  RH  019%=      5-min Rain = 0
KFLS 242120Z 07011G17KT 14/M09 A3011 RMK A01 T01411086  RH  020%=      5-min Rain = 0
KFLS 242125Z 06013KT 14/M09 A3011 RMK A01 T01381091  RH  020%=      5-min Rain = 0
KFLS 242130Z 07010KT 15/M09 A3011 RMK A01 T01451092  RH  019%=      5-min Rain = 0
KFLS 242135Z 05014KT 14/M09 A3011 RMK A01 T01441093  RH  019%=      5-min Rain = 0
KFLS 242140Z 08010G16KT 15/M10 A3011 RMK A01 T01451096  RH  018%=      5-min Rain = 0
KFLS 242145Z 07012KT 14/M09 A301 RMK A01 T01421094  RH  019%=      5-min Rain = 0
KFLS 242150Z 06012G17KT 14/M09 A3011 RMK A01 T01411090  RH  020%=      5-min Rain = 0
KFLS 242155Z 07011KT 14/M09 A3011 RMK A01 T01411092  RH  019%=      5-min Rain = 0
KFLS 242200Z 07009G14KT 14/M09 A3011 RMK A01 T01411091  RH  019%=      5-min Rain = 0
KFLS 242205Z 05010G17KT 14/M09 A3011 RMK A01 T01411091  RH  019%=      5-min Rain = 0
KFLS 242210Z 07012KT 14/M09 A3011 RMK A01 T01411093  RH  019%=      5-min Rain = 0
KFLS 242215Z 09011G16KT 14/M09 A3011 RMK A01 T01411093  RH  019%=      5-min Rain = 0
KFLS 242220Z 08012KT 14/M09 A301 RMK A01 T01421093  RH  019%=      5-min Rain = 0
KFLS 242225Z 07010KT 14/M09 A301 RMK A01 T01431089  RH  019%=      5-min Rain = 0
KFLS 242230Z 08010G16KT 14/M09 A3011 RMK A01 T01411089  RH  020%=      5-min Rain = 0
KFLS 242235Z 08011KT 14/M09 A3011 RMK A01 T01401091  RH  020%=      5-min Rain = 0
KFLS 242240Z 08011G16KT 14/M09 A301 RMK A01 T01391088  RH  020%=      5-min Rain = 0
KFLS 242245Z 07010KT 14/M09 A301 RMK A01 T01381089  RH  020%=      5-min Rain = 0
KFLS 242250Z 08012KT 14/M09 A3009 RMK A01 T01391089  RH  020%=      5-min Rain = 0
KFLS 242255Z 08011G16KT 14/M09 A3009 RMK A01 T01381091  RH  020%=      5-min Rain = 0
KFLS 242300Z 07009KT 14/M09 A3009 RMK A01 T01391090  RH  020%=      5-min Rain = 0
KFLS 242305Z 08012KT 14/M09 A301 RMK A01 T01371089  RH  020%=      5-min Rain = 0
KFLS 242310Z 08012KT 14/M09 A301 RMK A01 T01351088  RH  021%=      5-min Rain = 0
KFLS 242315Z 08011KT 13/M09 A301 RMK A01 T01331087  RH  021%=      5-min Rain = 0
KFLS 242320Z 07011KT 13/M09 A301 RMK A01 T01331085  RH  021%=      5-min Rain = 0
KFLS 242325Z 08010KT 13/M08 A3011 RMK A01 T01321084  RH  022%=      5-min Rain = 0
KFLS 242330Z 07010KT 13/M08 A3011 RMK A01 T01291084  RH  022%=      5-min Rain = 0
KFLS 242335Z 07009KT 13/M08 A3011 RMK A01 T01291083  RH  022%=      5-min Rain = 0
KFLS 242340Z 08009KT 13/M08 A3011 RMK A01 T01271082  RH  023%=      5-min Rain = 0
KFLS 242345Z 07010KT 13/M08 A3011 RMK A01 T01271081  RH  023%=      5-min Rain = 0
KFLS 242350Z 07009KT 13/M08 A3012 RMK A01 T01251081  RH  023%=      5-min Rain = 0
KFLS 242355Z 07009KT 12/M08 A3012 RMK A01 T01221080  RH  024%=      5-min Rain = 0
KFLS 250000Z 07008KT 12/M08 A3012 RMK A01 T01201079  RH  024%=      5-min Rain = 0
KFLS 250005Z 06010KT 12/M08 A3012 RMK A01 T01181079  RH  025%=      5-min Rain = 0
KFLS 250010Z 07009KT 12/M08 A3012 RMK A01 T01161079  RH  025%=      5-min Rain = 0
KFLS 250015Z 07009KT 11/M08 A3012 RMK A01 T01131079  RH  026%=      5-min Rain = 0
KFLS 250020Z 07009KT 11/M08 A3012 RMK A01 T01091080  RH  026%=      5-min Rain = 0
KFLS 250025Z 07009KT 11/M08 A3012 RMK A01 T01051081  RH  027%=      5-min Rain = 0
KFLS 250030Z 07008KT 10/M08 A3012 RMK A01 T01001081  RH  027%=      5-min Rain = 0
KFLS 250035Z 07008KT 09/M08 A3013 RMK A01 T00921082  RH  029%=      5-min Rain = 0
KFLS 250040Z 07007KT 08/M08 A3013 RMK A01 T00831082  RH  031%=      5-min Rain = 0
KFLS 250045Z 07007KT 08/M08 A3014 RMK A01 T00761083  RH  032%=      5-min Rain = 0
KFLS 250050Z 07007KT 07/M08 A3014 RMK A01 T00701084  RH  033%=      5-min Rain = 0
KFLS 250055Z 07007KT 07/M08 A3014 RMK A01 T00701084  RH  033%=      5-min Rain = 0
KFLS 250100Z 07006KT 07/M09 A3015 RMK A01 T00671085  RH  033%=      5-min Rain = 0
KFLS 250105Z 07006KT 06/M09 A3015 RMK A01 T00611087  RH  034%=      5-min Rain = 0
KFLS 250110Z 07007KT 06/M09 A3015 RMK A01 T00571086  RH  035%=      5-min Rain = 0
KFLS 250115Z 07007KT 06/M09 A3015 RMK A01 T00581085  RH  035%=      5-min Rain = 0
KFLS 250120Z 07007KT 05/M09 A3015 RMK A01 T00541085  RH  036%=      5-min Rain = 0
KFLS 250125Z 07007KT 05/M09 A3016 RMK A01 T00521086  RH  037%=      5-min Rain = 0
KFLS 250130Z 07007KT 05/M09 A3016 RMK A01 T00481088  RH  037%=      5-min Rain = 0
KFLS 250135Z 07008KT 04/M09 A3016 RMK A01 T00431087  RH  039%=      5-min Rain = 0
KFLS 250140Z 07008KT 04/M09 A3016 RMK A01 T00411085  RH  040%=      5-min Rain = 0
KFLS 250145Z 06007KT 04/M09 A3017 RMK A01 T00351085  RH  042%=      5-min Rain = 0
KFLS 250150Z 06007KT 04/M09 A3017 RMK A01 T00361086  RH  041%=      5-min Rain = 0
KFLS 250155Z 06008KT 04/M09 A3017 RMK A01 T00381086  RH  040%=      5-min Rain = 0
KFLS 250200Z 06008KT 04/M08 A3017 RMK A01 T00351084  RH  042%=      5-min Rain = 0
KFLS 250205Z 07009KT 03/M08 A3017 RMK A01 T00321081  RH  044%=      5-min Rain = 0
KFLS 250210Z 06009KT 04/M08 A3017 RMK A01 T00361080  RH  043%=      5-min Rain = 0
KFLS 250215Z 05007KT 03/M08 A3017 RMK A01 T00301079  RH  045%=      5-min Rain = 0
KFLS 250220Z 05007KT 03/M08 A3017 RMK A01 T00271078  RH  046%=      5-min Rain = 0
KFLS 250225Z 05007KT 03/M08 A3018 RMK A01 T00261078  RH  047%=      5-min Rain = 0
KFLS 250230Z 05008KT 02/M08 A3018 RMK A01 T00241077  RH  048%=      5-min Rain = 0
KFLS 250235Z 06008KT 03/M08 A3018 RMK A01 T00251077  RH  048%=      5-min Rain = 0
KFLS 250240Z 06008KT 03/M08 A3018 RMK A01 T00261077  RH  047%=      5-min Rain = 0
KFLS 250245Z 06009KT 03/M07 A3018 RMK A01 T00311074  RH  047%=      5-min Rain = 0
KFLS 250250Z 06008KT 03/M08 A3018 RMK A01 T00321075  RH  046%=      5-min Rain = 0
KFLS 250255Z 06008KT 03/M08 A3018 RMK A01 T00291077  RH  046%=      5-min Rain = 0
KFLS 250300Z 06008KT 03/M08 A3018 RMK A01 T00271077  RH  047%=      5-min Rain = 0
KFLS 250305Z 06008KT 03/M08 A3019 RMK A01 T00271077  RH  047%=      5-min Rain = 0
KFLS 250310Z 07008KT 03/M08 A3019 RMK A01 T00251078  RH  047%=      5-min Rain = 0
KFLS 250315Z 07009KT 03/M08 A3019 RMK A01 T00281077  RH  046%=      5-min Rain = 0
KFLS 250320Z 07010KT 03/M08 A3019 RMK A01 T00341077  RH  045%=      5-min Rain = 0
KFLS 250325Z 07009KT 04/M08 A3019 RMK A01 T00401077  RH  043%=      5-min Rain = 0
KFLS 250330Z 07009KT 04/M08 A3019 RMK A01 T00431076  RH  042%=      5-min Rain = 0
KFLS 250335Z 07009KT 05/M08 A3019 RMK A01 T00471077  RH  041%=      5-min Rain = 0
KFLS 250340Z 07009KT 04/M08 A3019 RMK A01 T00441078  RH  041%=      5-min Rain = 0
KFLS 250345Z 07009KT 04/M08 A302 RMK A01 T00421078  RH  042%=      5-min Rain = 0
KFLS 250350Z 08010KT 04/M08 A3019 RMK A01 T00421076  RH  042%=      5-min Rain = 0
KFLS 250355Z 08011KT 05/M08 A3019 RMK A01 T00461076  RH  041%=      5-min Rain = 0
KFLS 250400Z 07011KT 05/M08 A3019 RMK A01 T00491076  RH  040%=      5-min Rain = 0
KFLS 250405Z 07011KT 05/M08 A3019 RMK A01 T00491077  RH  040%=      5-min Rain = 0
KFLS 250410Z 07011KT 05/M08 A302 RMK A01 T00491078  RH  040%=      5-min Rain = 0
KFLS 250415Z 07011KT 05/M08 A3019 RMK A01 T00491079  RH  040%=      5-min Rain = 0
KFLS 250420Z 07011KT 05/M08 A3019 RMK A01 T00491079  RH  039%=      5-min Rain = 0
KFLS 250425Z 07011KT 05/M08 A3019 RMK A01 T00501078  RH  039%=      5-min Rain = 0
KFLS 250430Z 07011KT 05/M08 A3019 RMK A01 T00501078  RH  040%=      5-min Rain = 0
KFLS 250435Z 07013KT 05/M08 A3019 RMK A01 T00501078  RH  039%=      5-min Rain = 0
KFLS 250440Z 07012KT 05/M08 A3019 RMK A01 T00511079  RH  039%=      5-min Rain = 0
KFLS 250445Z 08012G17KT 05/M08 A302 RMK A01 T00491079  RH  040%=      5-min Rain = 0
KFLS 250450Z 08011KT 05/M08 A3019 RMK A01 T00461079  RH  040%=      5-min Rain = 0
KFLS 250455Z 08011KT 04/M08 A3019 RMK A01 T00431079  RH  041%=      5-min Rain = 0
KFLS 250500Z 08013KT 05/M08 A3019 RMK A01 T00471077  RH  041%=      5-min Rain = 0
KFLS 250505Z 08013KT 05/M08 A3019 RMK A01 T00481077  RH  040%=      5-min Rain = 0
KFLS 250510Z 08013KT 05/M08 A3019 RMK A01 T00461077  RH  041%=      5-min Rain = 0
KFLS 250515Z 08012KT 04/M08 A3019 RMK A01 T00441078  RH  041%=      5-min Rain = 0
KFLS 250520Z 08012KT 04/M08 A3019 RMK A01 T00421077  RH  042%=      5-min Rain = 0
KFLS 250525Z 08013KT 04/M08 A3019 RMK A01 T00411076  RH  043%=      5-min Rain = 0
KFLS 250530Z 08013KT 04/M08 A3019 RMK A01 T00411077  RH  042%=      5-min Rain = 0
KFLS 250535Z 08012KT 04/M08 A3019 RMK A01 T00381078  RH  043%=      5-min Rain = 0
KFLS 250540Z 08011KT 04/M08 A3019 RMK A01 T00351078  RH  044%=      5-min Rain = 0
KFLS 250545Z 08010KT 03/M08 A3019 RMK A01 T00321078  RH  045%=      5-min Rain = 0
KFLS 250550Z 08010KT 03/M08 A302 RMK A01 T00301077  RH  046%=      5-min Rain = 0
KFLS 250555Z 08012KT 03/M08 A302 RMK A01 T00311076  RH  046%=      5-min Rain = 0

Page generated in 0.0086 seconds.